createdAt,value
2018-10-21T16:58:01.256Z,17.20
2018-10-21T17:00:31.728Z,17.00
2018-10-21T17:03:01.827Z,17.00
2018-10-21T17:05:35.826Z,16.90
2018-10-21T17:08:08.851Z,16.90
2018-10-21T17:10:39.046Z,16.90
2018-10-21T17:13:10.390Z,16.90
2018-10-21T17:15:42.021Z,16.90
2018-10-21T17:18:12.416Z,16.90
2018-10-21T17:20:49.050Z,17.00
2018-10-21T17:23:19.860Z,17.00
2018-10-21T17:25:49.967Z,17.10
2018-10-21T17:28:30.210Z,16.70
2018-10-21T17:31:00.425Z,16.30
2018-10-21T17:33:31.852Z,15.80
2018-10-21T17:36:02.961Z,15.60
2018-10-21T17:38:33.417Z,15.40
2018-10-21T17:41:03.425Z,15.20
2018-10-21T17:43:33.621Z,15.10
2018-10-21T17:46:04.876Z,15.00
2018-10-21T17:48:36.392Z,15.00
2018-10-21T17:51:12.181Z,14.90
2018-10-21T17:53:42.740Z,14.90
2018-10-21T17:56:24.801Z,14.80
2018-10-21T17:58:55.200Z,14.80
2018-10-21T18:01:27.201Z,14.80
2018-10-21T18:04:15.288Z,14.70
2018-10-21T18:06:56.377Z,14.60
2018-10-21T18:09:26.761Z,14.50
2018-10-21T18:11:57.215Z,14.50
2018-10-21T18:14:27.520Z,14.50
2018-10-21T18:16:57.925Z,14.40
2018-10-21T18:19:28.406Z,14.40
2018-10-21T18:21:58.593Z,14.40
2018-10-21T18:24:29.493Z,14.30
2018-10-21T18:26:59.916Z,14.30
2018-10-21T18:29:30.416Z,14.20
2018-10-21T18:32:01.036Z,14.30
2018-10-21T18:34:31.465Z,14.20
2018-10-21T18:37:01.742Z,14.20
2018-10-21T18:39:32.221Z,14.20
2018-10-21T18:42:02.545Z,14.20
2018-10-21T18:44:33.050Z,14.20
2018-10-21T18:47:04.177Z,14.20
2018-10-21T18:49:34.650Z,14.10
2018-10-21T18:52:05.949Z,14.10
2018-10-21T18:54:36.368Z,14.10
2018-10-21T18:57:07.096Z,14.10
2018-10-21T18:59:37.635Z,14.10
2018-10-21T19:02:08.611Z,14.10
2018-10-21T19:04:39.161Z,14.00
2018-10-21T19:07:10.186Z,14.00
2018-10-21T19:09:40.790Z,13.90
2018-10-21T19:12:11.287Z,13.90
2018-10-21T19:14:42.526Z,13.80
2018-10-21T19:17:13.031Z,13.80
2018-10-21T19:19:44.003Z,13.70
2018-10-21T19:22:14.678Z,13.80
2018-10-21T19:24:45.447Z,13.70
2018-10-21T19:27:16.376Z,13.70
2018-10-21T19:29:46.926Z,13.70
2018-10-21T19:32:17.436Z,13.70
2018-10-21T19:34:48.146Z,13.70
2018-10-21T19:37:18.645Z,13.70
2018-10-21T19:39:49.400Z,13.70
2018-10-21T19:42:20.044Z,13.60
2018-10-21T19:44:50.441Z,13.60
2018-10-21T19:47:20.870Z,13.60
2018-10-21T19:49:51.313Z,13.50
2018-10-21T19:52:21.886Z,13.50
2018-10-21T19:54:52.166Z,13.40
2018-10-21T19:57:23.529Z,13.40
2018-10-21T19:59:54.056Z,13.30
2018-10-21T20:02:24.967Z,13.30
2018-10-21T20:04:55.501Z,13.30
2018-10-21T20:07:26.390Z,13.20
2018-10-21T20:09:57.242Z,13.20
2018-10-21T20:12:28.330Z,13.20
2018-10-21T20:14:59.208Z,13.20
2018-10-21T20:17:29.990Z,13.20
2018-10-21T20:20:00.479Z,13.10
2018-10-21T20:22:31.031Z,13.10
2018-10-21T20:25:01.546Z,13.00
2018-10-21T20:27:32.251Z,12.90
2018-10-21T20:30:02.828Z,12.80
2018-10-21T20:32:33.293Z,12.80
2018-10-21T20:35:03.806Z,12.80
2018-10-21T20:37:34.021Z,12.70
2018-10-21T20:40:04.279Z,12.70
2018-10-21T20:42:34.749Z,12.60
2018-10-21T20:45:05.086Z,12.60
2018-10-21T20:47:35.716Z,12.50
2018-10-21T20:50:06.351Z,12.40
2018-10-21T20:52:37.206Z,12.40
2018-10-21T20:55:07.581Z,12.40
2018-10-21T20:57:38.305Z,12.30
2018-10-21T21:00:08.785Z,12.30
2018-10-21T21:02:39.176Z,12.30
2018-10-21T21:05:10.600Z,12.20
2018-10-21T21:07:41.026Z,12.10
2018-10-21T21:10:11.791Z,12.10
2018-10-21T21:12:42.424Z,12.10
2018-10-21T21:15:12.683Z,12.00
2018-10-21T21:17:43.156Z,12.00
2018-10-21T21:20:13.191Z,12.00
2018-10-21T21:22:43.351Z,12.00
2018-10-21T21:25:13.535Z,12.00
2018-10-21T21:27:43.746Z,12.00
2018-10-21T21:30:14.128Z,11.90
2018-10-21T21:32:44.361Z,12.00
2018-10-21T21:35:14.316Z,11.90
2018-10-21T21:37:44.286Z,11.80
2018-10-21T21:40:14.423Z,11.80
2018-10-21T21:42:44.481Z,11.80
2018-10-21T21:45:14.487Z,11.80
2018-10-21T21:47:44.846Z,11.80
2018-10-21T21:50:15.056Z,11.80
2018-10-21T21:52:45.266Z,11.80
2018-10-21T21:55:15.299Z,11.80
2018-10-21T21:57:45.595Z,11.80
2018-10-21T22:00:15.841Z,11.70
2018-10-21T22:02:46.065Z,11.80
2018-10-21T22:05:16.287Z,11.80
2018-10-21T22:07:46.777Z,11.70
2018-10-21T22:10:17.091Z,11.60
2018-10-21T22:12:47.160Z,11.60
2018-10-21T22:15:17.302Z,11.70
2018-10-21T22:17:47.548Z,11.70
2018-10-21T22:20:17.643Z,11.70
2018-10-21T22:22:47.824Z,11.70
2018-10-21T22:25:17.966Z,11.70
2018-10-21T22:27:48.016Z,11.70
2018-10-21T22:30:18.080Z,11.60
2018-10-21T22:32:48.167Z,11.60
2018-10-21T22:35:18.317Z,11.50
2018-10-21T22:37:48.229Z,11.60
2018-10-21T22:40:18.310Z,11.60
2018-10-21T22:42:48.261Z,11.60
2018-10-21T22:45:18.347Z,11.70
2018-10-21T22:47:48.395Z,11.80
2018-10-21T22:50:18.505Z,11.80
2018-10-21T22:52:48.370Z,11.70
2018-10-21T22:55:18.431Z,11.70
2018-10-21T22:57:48.371Z,11.70
2018-10-21T23:00:18.352Z,11.70
2018-10-21T23:02:53.918Z,11.70
2018-10-21T23:05:24.342Z,11.80
2018-10-21T23:07:54.459Z,11.80
2018-10-21T23:10:25.175Z,11.70
2018-10-21T23:12:55.220Z,11.60
2018-10-21T23:15:25.173Z,11.60
2018-10-21T23:17:55.244Z,11.60
2018-10-21T23:20:25.280Z,11.60
2018-10-21T23:22:55.270Z,11.60
2018-10-21T23:25:25.391Z,11.60
2018-10-21T23:27:55.490Z,11.40
2018-10-21T23:30:25.585Z,11.40
2018-10-21T23:32:55.704Z,11.40
2018-10-21T23:35:25.805Z,11.40
2018-10-21T23:37:55.924Z,11.50
2018-10-21T23:40:26.024Z,11.50
2018-10-21T23:42:55.869Z,11.50
2018-10-21T23:45:26.029Z,11.60
2018-10-21T23:47:56.134Z,11.60
2018-10-21T23:50:26.787Z,11.70
2018-10-21T23:52:56.844Z,11.70
2018-10-21T23:55:27.008Z,11.80
2018-10-21T23:57:57.100Z,11.80
